Sloan, Nevada
Current Conditions -  °F | °C
As of 1:56 AM on Saturday 25 Oct 2014 (Local Time) from KHND Reporting Station
Clear Clear  
Wind Chill: 63°   Ceiling: Unl
Heat Index: 63°   Visibility: 10mi
Dew Point: 38°   Wind: 6mph
Humidity: 40%   Direction: 160°SSE
Pressure: 30.06"   Gusts: NA
Location:  35.8437°N, 115.134°W
Report Text: KHND 250856Z AUTO 16005KT 10SM CLR 17/03 A3006 RMK AO2 52002 T01720033 SLP159
Loading
Personal Weather Stations






























Interactive Weather Map
Tropical Storm Tracking
New forecast layout! Learn more

10-Day Weather Forecast

Advertisements
Track Severe Weather on mobile